Main page
METAR-TAF:

METAR-TAF

Airports :

Clinton Municipal Airport

Clinton, Iowa, United States

latitude: 41-50N, longitude: 090-20W, elevation: 708 ft

Current weather observation

The report was made 1 hour and 2 minutes ago, at 18:56 UTC
Wind 12 mph from the Southwest
Temperature 52°F
Humidity 54%
Pressure 30.08 in. Hg
Visibility: 10 miles
Clear sky

METAR: KCWI 281856Z AUTO 23010KT 10SM CLR 11/02 A3008 RMK AO2 SLP192 T01110022

Time: 13:58 (19:58 UTC)


TAF: missing

Weather observations and forecasts of more than 4000 airports (METAR and TAF reports).

The available stations are represented by yellow and red dots on the map.

Hover mouse over dot to see the name of the station.

Then click to see weather observations and forecasts.

To change the map : click on the green buttons with a black cross to zoom in, on the green button with a dash to zoom out, or on the green arrows for adjacent maps.


METAR-TAF: